Time;durP1;ratioP1;P1;durP2;ratioP2;P2;SDS_P1;SDS_P2;PMS_P1;PMS_P2;Temp;Humidity;BMP_temperature;BMP_pressure;BME280_temperature;BME280_humidity;BME280_pressure;Samples;Min_cycle;Max_cycle;Signal;HPM_P1;HPM_P2
2021/09/23 00:01:06;;;;;;;20.30;12.57;;;7.80;99.90;;;8.08;67.40;94843.63;4987563;28;20219;-71
2021/09/23 00:03:45;;;;;;;20.97;13.10;;;;;;;8.03;67.44;94840.84;4975218;28;20289;-72
2021/09/23 00:06:11;;;;;;;23.47;13.63;;;7.40;99.90;;;8.02;67.69;94844.53;5017105;28;20217;-73
2021/09/23 00:08:37;;;;;;;23.37;14.80;;;7.10;99.90;;;8.02;67.67;94841.91;5001155;28;20201;-71
2021/09/23 00:11:04;;;;;;;28.53;15.50;;;;;;;7.96;67.89;94848.06;4993397;28;20303;-72
2021/09/23 00:13:29;;;;;;;25.90;15.13;;;7.10;99.90;;;8.02;67.57;94846.38;4983301;28;20213;-71
2021/09/23 00:16:01;;;;;;;28.63;15.33;;;7.30;99.90;;;8.03;68.40;94850.59;5007352;28;20230;-71
2021/09/23 00:18:29;;;;;;;24.60;14.93;;;7.20;99.90;;;8.01;67.91;94848.19;4990722;28;20214;-71
2021/09/23 00:20:55;;;;;;;25.50;15.67;;;6.30;99.90;;;8.06;67.87;94842.22;5005624;28;20253;-72
2021/09/23 00:23:24;;;;;;;24.90;15.53;;;7.20;99.90;;;8.12;67.49;94841.34;5009894;28;20206;-72
2021/09/23 00:25:53;;;;;;;22.63;14.80;;;6.90;99.90;;;8.07;67.95;94836.75;4990060;28;20225;-72
2021/09/23 00:28:21;;;;;;;21.80;14.90;;;7.80;99.90;;;8.08;68.38;94842.81;4991282;28;20228;-72
2021/09/23 00:30:46;;;;;;;24.33;15.50;;;7.20;99.90;;;7.98;68.13;94838.09;4990129;28;20214;-72
2021/09/23 00:33:12;;;;;;;22.60;14.77;;;7.00;99.90;;;7.99;67.95;94828.34;4984835;28;20683;-72
2021/09/23 00:35:38;;;;;;;25.73;15.83;;;7.00;99.90;;;8.00;68.36;94843.94;4973735;28;20213;-72
2021/09/23 00:38:04;;;;;;;25.87;15.40;;;7.90;99.90;;;8.03;68.39;94829.47;4960693;28;20223;-72
2021/09/23 00:40:30;;;;;;;25.63;15.20;;;7.60;99.90;;;8.07;68.40;94836.75;5003041;28;20233;-71
2021/09/23 00:42:59;;;;;;;24.93;15.33;;;6.90;99.90;;;8.06;68.07;94836.94;4977543;28;20288;-72
2021/09/23 00:45:25;;;;;;;21.90;14.73;;;7.30;99.90;;;8.06;68.57;94832.47;4987491;28;20227;-71
2021/09/23 00:47:51;;;;;;;21.10;13.50;;;7.30;99.90;;;8.00;68.16;94827.28;4975615;28;20230;-72
2021/09/23 00:50:22;;;;;;;19.67;13.60;;;7.70;99.90;;;7.88;68.38;94829.91;5001491;28;20211;-72
2021/09/23 00:52:49;;;;;;;22.73;13.43;;;7.90;99.90;;;7.86;69.01;94829.31;4993248;28;20291;-71
2021/09/23 00:55:15;;;;;;;19.47;12.87;;;;;;;7.88;68.88;94835.19;4988334;28;20232;-71
2021/09/23 00:57:41;;;;;;;19.00;13.07;;;7.20;99.90;;;7.82;68.74;94820.25;5008246;28;20611;-71
2021/09/23 01:00:11;;;;;;;18.77;12.87;;;7.60;99.90;;;7.78;68.72;94834.13;4990450;28;20207;-71
2021/09/23 01:02:37;;;;;;;18.17;12.70;;;7.20;99.90;;;7.78;68.89;94829.66;4975018;28;20611;-71
2021/09/23 01:05:05;;;;;;;18.50;12.00;;;7.80;99.90;;;7.73;68.52;94827.69;4975846;28;20213;-72
2021/09/23 01:07:33;;;;;;;20.60;12.17;;;6.10;99.90;;;7.69;68.72;94829.16;4988976;28;20706;-72
2021/09/23 01:10:03;;;;;;;14.90;11.20;;;;;;;7.66;68.76;94824.31;4993928;28;20336;-72
2021/09/23 01:12:29;;;;;;;18.17;12.30;;;7.20;99.90;;;7.65;68.38;94829.84;5009841;28;20218;-71
2021/09/23 01:14:57;;;;;;;19.60;12.47;;;6.60;99.90;;;7.65;69.10;94828.00;4984289;28;20222;-71
2021/09/23 01:17:26;;;;;;;15.13;11.33;;;5.80;99.90;;;7.64;69.19;94823.75;4990485;28;20285;-72
2021/09/23 01:19:52;;;;;;;16.27;11.33;;;5.80;99.90;;;7.57;69.62;94819.59;4994963;28;20219;-71
2021/09/23 01:22:18;;;;;;;16.17;11.60;;;6.80;99.90;;;7.57;68.90;94820.38;5009579;28;20214;-71
2021/09/23 01:24:44;;;;;;;13.33;10.53;;;6.40;99.90;;;7.57;69.40;94812.47;4994773;28;20554;-71
2021/09/23 01:27:15;;;;;;;13.90;9.47;;;7.40;99.90;;;7.45;69.80;94821.38;4996600;28;20280;-71
2021/09/23 01:29:42;;;;;;;15.90;10.63;;;;;;;7.41;68.95;94818.38;5013961;28;20201;-71
2021/09/23 01:32:09;;;;;;;14.70;10.43;;;6.40;99.90;;;7.45;69.89;94813.47;5008042;28;20221;-71
2021/09/23 01:34:37;;;;;;;17.03;11.20;;;5.50;99.90;;;7.34;69.66;94817.66;4975890;28;21332;-71
2021/09/23 01:37:03;;;;;;;17.27;11.50;;;6.80;99.90;;;7.33;69.49;94799.41;4994560;28;20202;-71
2021/09/23 01:39:32;;;;;;;18.70;11.93;;;6.40;99.90;;;7.35;69.46;94794.72;4980549;28;20201;-71
2021/09/23 01:41:58;;;;;;;16.90;11.43;;;6.50;99.90;;;7.32;69.56;94798.59;5007746;28;20216;-72
2021/09/23 01:44:24;;;;;;;20.97;13.90;;;6.90;99.90;;;7.30;69.86;94789.28;4980343;28;20230;-72
2021/09/23 01:46:50;;;;;;;19.50;13.10;;;6.20;99.90;;;7.32;69.29;94788.03;4990320;28;20211;-72
2021/09/23 01:49:16;;;;;;;21.07;12.37;;;;;;;7.29;69.74;94788.50;4995664;28;20349;-72
2021/09/23 01:51:45;;;;;;;17.37;12.13;;;5.50;99.90;;;7.29;69.07;94787.69;5007067;28;20241;-71
2021/09/23 01:54:11;;;;;;;21.00;13.57;;;7.30;99.90;;;7.31;69.62;94783.00;4979122;28;20210;-71
2021/09/23 01:56:37;;;;;;;18.03;11.90;;;7.30;99.90;;;7.22;69.63;94779.84;4995384;28;20251;-71
2021/09/23 01:59:03;;;;;;;21.77;12.60;;;5.70;99.90;;;7.23;69.19;94782.28;4995303;28;20921;-71
2021/09/23 02:01:29;;;;;;;23.90;13.93;;;7.30;99.90;;;7.21;69.36;94771.16;4978127;28;20521;-71
2021/09/23 02:03:55;;;;;;;18.53;12.90;;;6.30;99.90;;;7.23;69.66;94777.00;4977328;28;20221;-71
2021/09/23 02:06:21;;;;;;;21.93;14.17;;;6.70;99.90;;;7.32;69.89;94771.44;4974316;28;21059;-71
2021/09/23 02:08:47;;;;;;;19.30;13.80;;;;;;;7.30;70.48;94770.84;4994212;28;20319;-72
2021/09/23 02:11:15;;;;;;;17.80;12.50;;;6.50;99.90;;;7.25;70.33;94768.91;4979541;28;20343;-71
2021/09/23 02:13:42;;;;;;;20.47;13.27;;;6.30;99.90;;;7.22;69.47;94771.94;4979879;28;21084;-72
2021/09/23 02:16:08;;;;;;;17.10;12.43;;;5.60;99.90;;;7.27;69.70;94776.56;4967082;28;20216;-72
2021/09/23 02:18:36;;;;;;;23.50;13.80;;;6.20;99.90;;;7.33;69.80;94778.31;5008832;28;20224;-71
2021/09/23 02:21:04;;;;;;;20.13;12.57;;;6.10;99.90;;;7.43;70.32;94770.66;4990860;28;20315;-72
2021/09/23 02:23:30;;;;;;;22.03;13.70;;;6.20;99.90;;;7.49;70.45;94780.31;4991419;28;20279;-72
2021/09/23 02:25:56;;;;;;;25.93;14.83;;;6.30;99.90;;;7.63;70.16;94787.84;4992510;28;20224;-72
2021/09/23 02:28:22;;;;;;;26.33;15.70;;;6.70;99.90;;;7.80;70.23;94776.63;4993387;28;20220;-72
2021/09/23 02:30:51;;;;;;;25.17;15.90;;;6.60;99.90;;;7.98;70.86;94784.50;4993885;28;20209;-72
2021/09/23 02:33:17;;;;;;;25.23;16.43;;;7.90;99.90;;;8.07;70.45;94773.38;4990595;28;20212;-73
2021/09/23 02:35:43;;;;;;;24.43;16.03;;;7.00;99.90;;;8.33;70.56;94779.31;4995251;28;20212;-73
2021/09/23 02:38:09;;;;;;;23.60;15.60;;;7.10;99.90;;;8.45;70.27;94780.94;4990916;28;20714;-73
2021/09/23 02:40:35;;;;;;;23.00;14.97;;;7.30;99.90;;;8.63;70.83;94779.97;4994928;28;20325;-73
2021/09/23 02:43:01;;;;;;;23.30;16.10;;;7.70;99.90;;;8.66;70.69;94768.97;5006653;28;20220;-72
2021/09/23 02:45:27;;;;;;;22.67;16.17;;;7.90;99.90;;;8.73;71.00;94785.50;4995826;28;20215;-72
2021/09/23 02:47:55;;;;;;;24.70;15.90;;;;;;;8.81;70.62;94777.22;5009056;28;20219;-72
2021/09/23 02:50:24;;;;;;;20.00;14.20;;;9.00;99.90;;;8.92;71.07;94765.84;5010963;28;20746;-73
2021/09/23 02:52:52;;;;;;;18.97;14.10;;;7.40;99.90;;;9.05;71.01;94783.28;5007487;28;20215;-73
2021/09/23 02:55:18;;;;;;;22.30;15.27;;;8.20;99.90;;;9.25;71.40;94781.06;4993827;28;20270;-73
2021/09/23 02:57:44;;;;;;;18.23;13.00;;;8.20;99.90;;;9.31;71.32;94781.94;4991532;28;20203;-73
2021/09/23 03:00:15;;;;;;;21.73;13.63;;;8.50;99.90;;;9.35;71.09;94783.91;5006364;28;20223;-73
2021/09/23 03:02:41;;;;;;;19.73;14.07;;;;;;;9.44;71.43;94787.78;4989052;28;20286;-69
2021/09/23 03:05:08;;;;;;;17.03;13.57;;;8.60;99.90;;;9.59;71.92;94785.44;5009592;28;20827;-68
2021/09/23 03:07:34;;;;;;;17.73;13.37;;;9.00;99.90;;;9.65;71.56;94781.03;4976654;28;20212;-69
2021/09/23 03:10:00;;;;;;;20.83;14.63;;;8.20;99.90;;;9.67;71.72;94776.31;5007238;28;20219;-69
2021/09/23 03:12:26;;;;;;;18.17;13.33;;;8.80;99.90;;;9.77;71.95;94773.81;4988784;28;20300;-69
2021/09/23 03:14:52;;;;;;;19.73;13.60;;;;;;;9.89;71.69;94782.53;5006560;28;20218;-69
2021/09/23 03:17:21;;;;;;;17.03;13.27;;;8.40;99.90;;;9.93;71.75;94774.91;5008006;28;20211;-70
2021/09/23 03:19:47;;;;;;;16.87;13.43;;;;;;;9.97;71.92;94774.19;4992993;28;20582;-69
2021/09/23 03:22:16;;;;;;;16.70;13.60;;;8.10;99.90;;;10.03;71.92;94767.16;5002441;28;20268;-69
2021/09/23 03:24:43;;;;;;;19.10;14.17;;;9.20;99.90;;;10.03;71.92;94783.84;5007250;28;20645;-69
2021/09/23 03:27:11;;;;;;;16.77;13.57;;;9.20;99.90;;;10.14;71.94;94784.84;4995406;28;20209;-69
2021/09/23 03:29:37;;;;;;;17.27;13.83;;;9.10;99.90;;;10.18;71.90;94778.00;5006273;28;20211;-70
2021/09/23 03:32:04;;;;;;;20.43;14.73;;;9.50;99.90;;;10.26;71.95;94789.03;4993933;28;20214;-70
2021/09/23 03:34:30;;;;;;;16.43;13.67;;;;;;;10.37;72.12;94786.53;4990079;28;20544;-69
2021/09/23 03:36:56;;;;;;;16.40;13.70;;;9.10;99.90;;;10.34;72.49;94782.53;4994924;28;20273;-69
2021/09/23 03:39:22;;;;;;;17.93;13.03;;;9.40;99.90;;;10.41;72.15;94769.91;4989295;28;20253;-70
2021/09/23 03:41:50;;;;;;;18.67;13.73;;;9.80;99.90;;;10.46;72.22;94772.66;4995330;28;20374;-70
2021/09/23 03:44:16;;;;;;;21.37;14.90;;;9.90;99.90;;;10.52;72.54;94773.53;4991312;28;20671;-70
2021/09/23 03:46:45;;;;;;;18.53;14.03;;;10.50;99.90;;;10.54;72.57;94769.56;4993723;28;20297;-70
2021/09/23 03:49:11;;;;;;;19.73;14.27;;;;;;;10.57;72.43;94765.66;5004031;28;20243;-70
2021/09/23 03:51:37;;;;;;;20.87;15.33;;;9.70;99.90;;;10.62;72.42;94768.38;4993753;28;20687;-69
2021/09/23 03:54:02;;;;;;;17.30;13.70;;;9.90;99.90;;;10.57;72.43;94757.72;4991242;28;20311;-69
2021/09/23 03:56:29;;;;;;;23.13;14.20;;;9.60;99.90;;;10.62;72.41;94773.66;5010662;28;20975;-69
2021/09/23 03:58:56;;;;;;;20.67;13.80;;;;;;;10.62;72.83;94768.38;5005371;28;20219;-70
2021/09/23 04:01:21;;;;;;;18.27;13.97;;;10.10;99.90;;;10.63;72.82;94778.75;4991780;28;20247;-70
2021/09/23 04:03:49;;;;;;;17.37;13.67;;;9.30;99.90;;;10.62;72.78;94782.44;4992929;28;20290;-70
2021/09/23 04:06:23;;;;;;;19.83;14.97;;;;;;;10.70;72.94;94782.03;5009092;28;20668;-69
2021/09/23 04:08:49;;;;;;;19.20;14.80;;;10.10;99.90;;;10.79;72.54;94780.56;4990809;28;20557;-70
2021/09/23 04:11:16;;;;;;;19.47;14.60;;;9.70;99.90;;;10.79;72.70;94785.88;4976358;28;20302;-69
2021/09/23 04:13:42;;;;;;;19.70;14.63;;;9.50;99.90;;;10.80;72.86;94776.06;4976165;28;20216;-69
2021/09/23 04:16:07;;;;;;;20.00;15.20;;;9.70;99.90;;;10.85;73.12;94776.13;5007039;28;20224;-69
2021/09/23 04:18:33;;;;;;;20.30;15.47;;;9.90;99.90;;;10.91;72.81;94777.00;5002230;28;20220;-69
2021/09/23 04:20:59;;;;;;;25.07;16.90;;;10.30;99.90;;;10.93;73.06;94783.66;4990548;28;20221;-68
2021/09/23 04:23:28;;;;;;;20.90;15.40;;;9.90;99.90;;;11.00;72.94;94786.16;4972701;28;20209;-70
2021/09/23 04:25:54;;;;;;;23.43;15.93;;;;;;;11.01;73.01;94779.81;5005714;28;20226;-70
2021/09/23 04:28:20;;;;;;;19.30;15.17;;;9.90;99.90;;;11.05;73.31;94784.34;5005086;28;20217;-69
2021/09/23 04:30:45;;;;;;;23.70;15.77;;;10.20;99.90;;;11.04;73.27;94785.44;4974192;28;20571;-70
2021/09/23 04:33:12;;;;;;;19.13;14.70;;;;;;;11.05;73.38;94791.50;4992010;28;20223;-69
2021/09/23 04:35:38;;;;;;;19.73;15.07;;;10.10;99.90;;;11.11;73.35;94787.91;4989347;28;20227;-70
2021/09/23 04:38:05;;;;;;;21.00;14.47;;;10.00;99.90;;;11.16;73.49;94787.94;5009884;28;20213;-69
2021/09/23 04:40:31;;;;;;;17.67;14.03;;;10.30;99.90;;;11.17;73.42;94790.38;4969442;28;20231;-69
2021/09/23 04:42:57;;;;;;;17.80;14.47;;;10.00;99.90;;;11.16;73.22;94793.25;4992273;28;20214;-69
2021/09/23 04:45:23;;;;;;;19.10;14.60;;;10.40;99.90;;;11.10;73.24;94791.59;4984362;28;20224;-69
2021/09/23 04:47:51;;;;;;;19.83;14.17;;;10.40;99.90;;;11.18;73.62;94784.00;5008257;28;20543;-69
2021/09/23 04:50:18;;;;;;;19.10;14.17;;;10.20;99.90;;;11.20;73.26;94789.88;5004983;28;20221;-70
2021/09/23 04:52:44;;;;;;;17.10;13.63;;;10.40;99.90;;;11.20;73.28;94781.09;5009068;28;20228;-69
2021/09/23 04:55:10;;;;;;;19.40;14.10;;;10.40;99.90;;;11.21;73.68;94770.22;4977891;28;20223;-69
2021/09/23 04:57:36;;;;;;;18.20;14.27;;;10.30;99.90;;;11.22;73.95;94781.66;4976054;28;20241;-68
2021/09/23 05:00:06;;;;;;;21.23;15.33;;;10.20;99.90;;;11.29;73.68;94779.63;4973432;28;20228;-69
2021/09/23 05:02:37;;;;;;;18.20;13.93;;;10.30;99.90;;;11.28;73.37;94789.44;5008685;28;20439;-69
2021/09/23 05:05:03;;;;;;;21.17;14.43;;;10.40;99.90;;;11.30;73.54;94781.22;4990883;28;20213;-70
2021/09/23 05:07:29;;;;;;;17.70;13.67;;;10.40;99.90;;;11.36;73.69;94780.25;5005644;28;20248;-68
2021/09/23 05:09:58;;;;;;;19.37;15.03;;;10.50;99.90;;;11.39;74.04;94784.25;5006923;28;20218;-69
2021/09/23 05:12:24;;;;;;;21.53;15.40;;;10.40;99.90;;;11.35;73.59;94783.94;4988650;28;20218;-69
2021/09/23 05:14:50;;;;;;;18.03;14.30;;;10.90;99.90;;;11.31;73.50;94786.28;5008453;28;20274;-69
2021/09/23 05:17:16;;;;;;;18.27;14.07;;;10.20;99.90;;;11.32;73.50;94785.25;4989436;28;20320;-69
2021/09/23 05:19:42;;;;;;;21.13;15.00;;;;;;;11.39;73.73;94782.41;4991380;28;20220;-69
2021/09/23 05:22:08;;;;;;;17.73;13.70;;;11.00;99.90;;;11.35;73.85;94780.50;4975289;28;20220;-68
2021/09/23 05:24:34;;;;;;;21.50;14.83;;;10.20;99.90;;;11.35;74.01;94780.50;5009351;28;20344;-68
2021/09/23 05:27:00;;;;;;;18.03;14.00;;;10.30;99.90;;;11.40;74.03;94789.31;4988851;28;20689;-69
2021/09/23 05:29:26;;;;;;;22.10;15.70;;;10.20;99.90;;;11.35;74.08;94775.97;4992545;28;20213;-69
2021/09/23 05:31:54;;;;;;;20.67;15.47;;;10.40;99.90;;;11.44;73.87;94781.66;5004833;28;20305;-69
2021/09/23 05:34:19;;;;;;;20.53;14.80;;;9.80;99.90;;;11.47;74.03;94765.25;5008147;28;20219;-69
2021/09/23 05:36:45;;;;;;;19.27;14.73;;;10.90;99.90;;;11.50;74.27;94762.91;4988353;28;20221;-70
2021/09/23 05:39:13;;;;;;;21.20;15.67;;;10.40;99.90;;;11.58;73.94;94764.31;5011253;28;20211;-70
2021/09/23 05:41:41;;;;;;;18.27;14.00;;;10.70;99.90;;;11.61;73.95;94748.69;4971462;28;20230;-70
2021/09/23 05:44:13;;;;;;;19.70;15.47;;;10.50;99.90;;;11.67;74.33;94757.50;4960738;28;20222;-70
2021/09/23 05:46:39;;;;;;;19.00;14.10;;;10.30;99.90;;;11.63;73.97;94746.56;4974725;28;20303;-69
2021/09/23 05:49:05;;;;;;;19.40;14.97;;;11.10;99.90;;;11.73;73.98;94749.38;4976677;28;20888;-69
2021/09/23 05:51:32;;;;;;;32.63;15.40;;;;;;;11.79;74.39;94744.91;5004082;28;20209;-71
2021/09/23 05:53:57;;;;;;;30.13;15.33;;;11.10;99.90;;;11.77;73.92;94745.16;4974184;28;20217;-69
2021/09/23 05:56:23;;;;;;;23.23;14.63;;;10.40;99.90;;;11.82;74.46;94750.50;4992514;28;20219;-69
2021/09/23 05:58:51;;;;;;;20.43;14.53;;;11.00;99.90;;;11.93;74.19;94759.38;5009788;28;20600;-69
2021/09/23 06:01:17;;;;;;;19.70;13.83;;;10.70;99.90;;;11.95;74.28;94744.00;5008359;28;20225;-69
2021/09/23 06:03:43;;;;;;;20.63;14.33;;;11.20;99.90;;;12.07;74.33;94757.94;5008928;28;20225;-69
2021/09/23 06:06:09;;;;;;;20.37;15.07;;;11.80;99.90;;;12.14;74.20;94766.50;4992830;28;20350;-69
2021/09/23 06:08:34;;;;;;;20.43;15.57;;;11.00;99.90;;;12.22;73.97;94770.56;4977132;28;20235;-72
2021/09/23 06:11:00;;;;;;;20.27;14.20;;;11.20;99.90;;;12.24;74.11;94768.44;4975766;28;20213;-73
2021/09/23 06:13:26;;;;;;;17.60;14.03;;;11.20;99.90;;;12.27;74.29;94759.97;4993593;28;20219;-73
2021/09/23 06:15:52;;;;;;;17.30;13.73;;;11.50;99.90;;;12.35;74.38;94760.28;4957914;28;20214;-74
2021/09/23 06:18:17;;;;;;;16.90;13.40;;;11.60;99.90;;;12.47;74.72;94754.81;4970684;28;20302;-73
2021/09/23 06:20:47;;;;;;;17.67;13.27;;;11.60;99.90;;;12.45;74.28;94753.47;4976225;28;20219;-73
2021/09/23 06:23:14;;;;;;;16.07;12.80;;;12.10;99.90;;;12.59;74.38;94758.06;4994263;28;20233;-72
2021/09/23 06:25:43;;;;;;;18.50;13.53;;;11.60;99.90;;;12.67;74.46;94765.59;5012931;28;20777;-72
2021/09/23 06:28:10;;;;;;;14.80;12.63;;;11.70;99.90;;;12.68;74.10;94748.56;5008447;28;20247;-74
2021/09/23 06:30:37;;;;;;;16.77;12.70;;;12.50;99.90;;;12.85;74.39;94746.56;5009538;28;20674;-73
2021/09/23 06:33:06;;;;;;;16.83;12.87;;;12.20;99.90;;;12.97;74.06;94756.19;4992269;28;20257;-74
2021/09/23 06:35:32;;;;;;;16.43;12.07;;;12.90;99.90;;;13.09;74.31;94751.50;4978497;28;20241;-73
2021/09/23 06:37:58;;;;;;;18.03;12.50;;;11.80;99.90;;;13.20;74.13;94751.28;5006766;28;20634;-73
2021/09/23 06:40:24;;;;;;;16.83;13.57;;;12.30;99.90;;;13.27;74.55;94741.19;4996491;28;20232;-72
2021/09/23 06:42:49;;;;;;;16.20;13.73;;;12.90;99.90;;;13.47;74.34;94743.13;4990392;28;20227;-73
2021/09/23 06:45:16;;;;;;;16.23;14.03;;;12.50;99.90;;;13.54;74.34;94750.88;4993212;28;20578;-73
2021/09/23 06:47:42;;;;;;;18.57;14.33;;;13.30;99.90;;;13.71;74.42;94752.25;4992812;28;20715;-73
2021/09/23 06:50:09;;;;;;;18.83;14.53;;;13.90;99.90;;;13.84;74.22;94756.28;5002810;28;20529;-73
2021/09/23 06:52:38;;;;;;;20.97;14.83;;;13.20;99.90;;;13.98;74.37;94749.38;4991566;28;20691;-73
2021/09/23 06:55:04;;;;;;;17.80;15.03;;;14.20;99.90;;;14.13;74.07;94744.09;5003160;28;20233;-74
2021/09/23 06:57:32;;;;;;;21.63;16.10;;;14.20;99.90;;;14.33;74.22;94746.81;5007401;28;20212;-73
2021/09/23 07:00:02;;;;;;;20.63;15.93;;;13.70;99.90;;;14.50;74.15;94749.19;4998184;28;20227;-73
2021/09/23 07:02:33;;;;;;;20.17;16.13;;;14.80;99.90;;;14.59;74.01;94752.13;4981895;28;20222;-73
2021/09/23 07:04:59;;;;;;;21.07;16.50;;;13.70;99.90;;;14.66;74.28;94725.97;4997152;28;20232;-73
2021/09/23 07:07:25;;;;;;;20.93;15.53;;;;;;;14.62;74.16;94733.72;5011898;28;20236;-74
2021/09/23 07:09:51;;;;;;;17.00;14.27;;;14.00;99.90;;;14.59;74.01;94725.44;5010633;28;20237;-72
2021/09/23 07:12:17;;;;;;;18.70;15.10;;;14.50;99.90;;;14.67;73.88;94736.34;4979087;28;20220;-72
2021/09/23 07:14:43;;;;;;;19.77;15.97;;;14.30;99.90;;;14.76;74.01;94742.75;5007399;28;20219;-73
2021/09/23 07:17:09;;;;;;;17.83;15.10;;;14.70;99.90;;;14.84;73.93;94741.44;4976757;28;20291;-73
2021/09/23 07:19:37;;;;;;;17.17;15.00;;;14.80;99.90;;;15.14;73.84;94760.00;4992259;28;20315;-73
2021/09/23 07:22:05;;;;;;;18.13;14.83;;;15.20;99.90;;;15.22;73.72;94761.34;5011891;28;20221;-71
2021/09/23 07:24:36;;;;;;;18.87;16.27;;;;;;;15.22;73.70;94747.97;4974276;28;20585;-72
2021/09/23 07:27:03;;;;;;;19.07;15.23;;;15.00;99.90;;;15.35;74.04;94750.88;4995188;28;20235;-72
2021/09/23 07:29:29;;;;;;;16.53;14.60;;;;;;;15.55;73.90;94751.91;5005303;28;20223;-72
2021/09/23 07:31:56;;;;;;;16.73;14.90;;;14.70;99.90;;;15.89;73.76;94748.25;5011031;28;20246;-72
2021/09/23 07:34:21;;;;;;;18.43;15.50;;;15.10;99.90;;;15.71;73.75;94754.22;5005853;28;20589;-71
2021/09/23 07:36:49;;;;;;;17.30;15.50;;;15.60;99.90;;;15.93;73.64;94735.13;4994553;28;20216;-73
2021/09/23 07:39:15;;;;;;;17.30;14.97;;;15.00;99.90;;;15.75;73.47;94728.53;4988553;28;20680;-72
2021/09/23 07:41:45;;;;;;;17.13;15.33;;;15.10;99.90;;;15.79;73.45;94744.84;4993612;28;20215;-73
2021/09/23 07:44:14;;;;;;;19.23;16.40;;;15.10;99.90;;;15.72;73.41;94737.13;4984186;28;20214;-72
2021/09/23 07:46:42;;;;;;;18.43;16.50;;;15.00;99.90;;;15.75;73.54;94749.94;4979567;28;20215;-72
2021/09/23 07:49:13;;;;;;;22.20;16.47;;;15.40;99.90;;;15.75;73.41;94752.59;4990479;28;20258;-71
2021/09/23 07:51:39;;;;;;;19.97;16.80;;;14.40;99.90;;;15.71;73.13;94738.19;5002832;28;20218;-72
2021/09/23 07:54:05;;;;;;;18.53;15.87;;;15.00;99.90;;;15.65;72.79;94723.25;4989459;28;20230;-72
2021/09/23 07:56:31;;;;;;;19.87;17.40;;;;;;;15.68;73.16;94719.25;5008967;28;20233;-72
2021/09/23 07:58:59;;;;;;;21.37;17.27;;;15.70;99.90;;;15.64;72.96;94742.25;5007732;28;20623;-72
2021/09/23 08:01:25;;;;;;;18.77;15.90;;;15.10;99.90;;;16.08;73.03;94739.59;4993724;28;20673;-72
2021/09/23 08:03:53;;;;;;;20.23;16.00;;;;;;;16.97;72.84;94770.47;5007257;28;20227;-72
2021/09/23 08:06:19;;;;;;;18.33;16.10;;;16.80;99.90;;;18.24;72.63;94816.19;4993015;28;20552;-72
2021/09/23 08:08:45;;;;;;;18.57;14.60;;;18.20;99.90;;;20.31;72.68;94791.09;4977556;28;20225;-73
2021/09/23 08:11:11;;;;;;;17.87;14.50;;;19.00;99.90;;;20.28;72.54;94745.94;4990703;28;20222;-73
2021/09/23 08:13:36;;;;;;;15.17;13.67;;;20.00;99.90;;;20.06;72.38;94748.53;4991529;28;20219;-72
2021/09/23 08:16:03;;;;;;;16.47;14.77;;;19.40;99.90;;;19.56;72.22;94735.03;4982912;28;20562;-71
2021/09/23 08:18:29;;;;;;;17.23;15.30;;;19.30;99.90;;;18.85;72.08;94735.53;5118386;22;20386;-81
2021/09/23 08:20:57;;;;;;;16.40;14.70;;;18.50;99.90;;;18.51;72.20;94740.41;5009484;28;20221;-81
2021/09/23 08:23:25;;;;;;;17.13;15.30;;;18.90;99.90;;;18.56;71.73;94748.41;4994340;28;20737;-81
2021/09/23 08:25:52;;;;;;;16.10;14.37;;;18.70;99.90;;;18.54;72.05;94742.50;5012527;28;20227;-80
2021/09/23 08:28:23;;;;;;;16.00;14.40;;;18.60;99.90;;;18.34;71.47;94727.50;4983753;28;20224;-81
2021/09/23 08:30:50;;;;;;;16.80;15.10;;;18.10;99.90;;;18.23;71.50;94734.88;4977252;28;20233;-81
2021/09/23 08:33:19;;;;;;;18.47;15.53;;;;;;;17.87;71.52;94741.84;5014905;28;20308;-80
2021/09/23 08:35:50;;;;;;;19.07;16.47;;;17.80;99.90;;;17.75;71.14;94747.66;5012184;28;20674;-82
2021/09/23 08:38:19;;;;;;;17.87;16.07;;;17.70;99.90;;;17.72;71.20;94747.44;5007834;28;20245;-81
2021/09/23 08:40:47;;;;;;;18.50;16.60;;;17.80;99.90;;;17.65;71.12;94763.06;4993785;28;20592;-82
2021/09/23 08:43:15;;;;;;;19.10;17.20;;;17.00;99.90;;;17.23;71.17;94745.81;5018090;28;20228;-82
2021/09/23 08:45:42;;;;;;;18.77;16.73;;;;;;;17.30;70.80;94788.34;4997217;28;20220;-81
2021/09/23 08:48:08;;;;;;;18.40;16.43;;;16.90;99.90;;;17.41;70.88;94774.56;5012281;28;20224;-81
2021/09/23 08:50:36;;;;;;;21.23;17.07;;;17.00;99.90;;;17.33;70.82;94769.81;4998024;28;20220;-82
2021/09/23 08:53:06;;;;;;;18.30;16.50;;;15.60;99.90;;;17.29;70.76;94778.72;5017729;28;20231;-82
2021/09/23 08:55:34;;;;;;;17.13;15.33;;;17.30;99.90;;;17.58;70.52;94776.03;5010809;28;20215;-82
2021/09/23 08:58:04;;;;;;;17.70;15.90;;;16.80;99.90;;;17.89;70.44;94777.25;5013998;28;20630;-81
2021/09/23 09:00:34;;;;;;;17.50;15.70;;;18.20;99.90;;;18.62;70.61;94782.13;5016223;28;20216;-82
2021/09/23 09:03:14;;;;;;;17.07;15.07;;;18.30;99.90;;;18.89;70.39;94788.41;5000031;28;20217;-80
2021/09/23 09:05:52;;;;;;;16.13;14.43;;;18.60;99.90;;;19.04;70.11;94789.25;5013446;28;20218;-80
2021/09/23 09:08:28;;;;;;;16.53;14.83;;;18.50;99.90;;;18.80;70.16;94757.91;5031966;28;20208;-80
2021/09/23 09:10:54;;;;;;;18.43;15.10;;;;;;;18.60;70.08;94750.19;5017096;28;20213;-81
2021/09/23 09:13:20;;;;;;;17.00;15.27;;;;;;;18.84;69.73;94782.28;4994946;28;20221;-80
2021/09/23 09:15:47;;;;;;;16.47;14.87;;;;;;;18.87;69.75;94789.75;5031746;28;20228;-80
2021/09/23 09:18:21;;;;;;;16.30;14.60;;;18.70;99.90;;;19.04;69.63;94760.44;4993614;28;20209;-80
2021/09/23 09:21:07;;;;;;;17.50;15.70;;;19.00;99.90;;;19.26;69.66;94814.38;5014333;28;20246;-80
2021/09/23 09:23:50;;;;;;;16.97;15.30;;;19.00;99.90;;;19.50;69.42;94821.50;5011970;28;20222;-81
2021/09/23 09:26:26;;;;;;;16.87;15.07;;;19.00;99.90;;;20.54;69.28;94841.19;5009251;28;20307;-80
2021/09/23 09:28:58;;;;;;;15.27;13.77;;;20.70;99.90;;;21.66;68.85;94828.50;5010623;28;20218;-80
2021/09/23 09:31:27;;;;;;;16.17;14.47;;;;;;;23.43;68.46;94867.31;4998172;28;20572;-81
2021/09/23 09:33:59;;;;;;;15.77;14.27;;;25.30;99.90;;;25.31;68.39;94854.72;5034179;28;20231;-80
2021/09/23 09:36:49;;;;;;;15.20;13.70;;;24.40;99.90;;;27.64;67.98;94928.66;5013551;28;20227;-80
2021/09/23 09:39:19;;;;;;;14.47;13.10;;;29.50;99.90;;;29.56;67.26;94878.41;5005159;28;20221;-81
2021/09/23 09:41:53;;;;;;;14.17;12.97;;;30.70;97.70;;;29.31;67.09;94744.03;4995576;28;20201;-80
2021/09/23 09:44:20;;;;;;;15.20;13.73;;;28.90;95.30;;;27.45;67.13;94698.59;5020331;28;20210;-81
2021/09/23 09:46:54;;;;;;;14.10;12.83;;;28.00;96.30;;;26.23;66.68;94764.66;5016345;28;20689;-81
2021/09/23 09:49:27;;;;;;;15.03;13.63;;;27.50;97.80;;;26.17;66.07;94847.59;5017754;28;20212;-80
2021/09/23 09:52:01;;;;;;;14.43;13.17;;;28.10;96.70;;;27.60;65.80;94922.34;5000129;28;20221;-81
2021/09/23 09:54:30;;;;;;;14.67;13.20;;;30.40;93.00;;;30.19;64.73;94960.09;4996021;28;20211;-80
2021/09/23 09:57:04;;;;;;;13.83;12.63;;;30.40;92.30;;;29.61;64.55;94815.28;5015828;28;20303;-86
2021/09/23 09:59:33;;;;;;;13.53;12.43;;;30.60;86.10;;;29.90;64.30;94811.91;5017672;28;20212;-81
2021/09/23 10:02:00;;;;;;;14.30;12.90;;;31.00;83.90;;;30.89;63.58;94878.44;4984929;28;20217;-80
2021/09/23 10:04:32;;;;;;;13.57;12.40;;;32.20;82.00;;;33.14;63.11;94881.25;5016653;28;20315;-79
2021/09/23 10:07:02;;;;;;;13.47;12.07;;;34.40;76.20;;;35.37;62.17;94817.06;5003712;28;20301;-82
2021/09/23 10:09:35;;;;;;;13.13;11.93;;;36.70;69.50;;;36.96;61.06;94889.88;4983630;28;20678;-81
2021/09/23 10:12:01;;;;;;;12.47;11.40;;;38.30;64.20;;;36.58;61.00;94819.91;5007069;28;20258;-82
2021/09/23 10:14:28;;;;;;;12.98;11.77;;;38.60;61.00;;;37.73;60.19;94857.06;5016610;28;21969;-82
2021/09/23 10:16:58;;;;;;;12.77;11.65;;;40.30;57.00;;;39.20;59.24;94817.16;5025088;28;20216;-81
2021/09/23 10:19:27;;;;;;;11.20;10.40;;;41.70;54.70;;;40.25;57.94;94752.25;5033748;28;20292;-82